Stations météo

réclame
Mon MeteoGroup
Embrun, France (7591): Température de l'air & dewpoint: 17.10.2018 01:00:00 - 23.10.2018 01:00:00 (CEST)Embrun, France (7591): Température de l'air 5cm: 17.10.2018 01:00:00 - 23.10.2018 01:00:00 (CEST)Embrun, France (7591): Température de l'air -20cm & Température de l'air -100cm: 17.10.2018 01:00:00 - 23.10.2018 01:00:00 (CEST)Embrun, France (7591): Vitesse du vent & gusts: 17.10.2018 01:00:00 - 23.10.2018 01:00:00 (CEST)Embrun, France (7591): Direction du vent: 17.10.2018 01:00:00 - 23.10.2018 01:00:00 (CEST)Embrun, France (7591): visibility: 17.10.2018 01:00:00 - 23.10.2018 01:00:00 (CEST)Embrun, France (7591): Ensoleillement: 17.10.2018 01:00:00 - 23.10.2018 01:00:00 (CEST)Embrun, France (7591): Quantités de précipitations: 17.10.2018 01:00:00 - 23.10.2018 01:00:00 (CEST)
Date & Time tt [°C] td [°C] tt 5cm [°C] tt -20cm [°C] tt -100cm [°C] ff [km/h] ff [knt] fx [km/h] fx [knt] dd vv [km] sd [min] rr [mm]
23.10.2018 01:00:00 5,6 3,6 2,4 15,2 16,3 6 4 11 6 NE 15 0 0,0
23.10.2018 00:00:00 7,1 4,6 4,2 15,3 16,3 4 2 12 6 N 14 0 0,0
22.10.2018 23:00:00 7,5 5,0 4,4 15,3 16,3 3 2 13 7 NNW 17 0 0,0
22.10.2018 22:00:00 8,5 4,9 5,5 15,3 16,3 5 3 13 7 WSW 20 0 0,0
22.10.2018 21:00:00 9,6 5,6 6,0 15,2 16,3 6 3 8 5 N 18 0 0,0
22.10.2018 20:00:00 10,9 5,4 7,1 15,2 16,4 4 2 6 4 N 20 0 0,0
22.10.2018 19:00:00 13,0 6,1 9,4 15,1 16,3 0 0 16 8 N 18 15 0,0
22.10.2018 18:00:00 15,9 6,3 15,2 15,1 16,3 9 5 22 12 SSW 20 60 0,0
22.10.2018 17:00:00 17,2 5,8 19,8 15,0 16,4 14 7 31 17 SSW 20 60 0,0
22.10.2018 16:00:00 17,5 5,7 21,6 15,0 16,4 16 9 35 19 SSW 20 60 0,0
22.10.2018 15:00:00 17,5 6,1 22,9 15,0 16,4 18 10 36 19 SSW 20 60 0,0
22.10.2018 14:00:00 17,0 5,9 23,6 15,0 16,3 15 8 27 15 SSW 20 60 0,0
22.10.2018 13:00:00 16,6 5,2 23,9 15,0 16,4 10 5 18 10 SSW 20 60 0,0
22.10.2018 12:00:00 15,5 4,5 23,0 15,1 16,4 6 4 15 8 E 20 60 0,0
22.10.2018 11:00:00 12,5 4,5 16,2 15,1 16,4 8 4 24 13 ENE 20 60 0,0
22.10.2018 10:00:00 9,7 4,3 5,3 15,2 16,4 13 7 24 13 NE 20 52 0,0
22.10.2018 09:00:00 6,5 4,3 3,4 15,3 16,4 7 4 13 7 NNE 19 0 0,0
22.10.2018 08:00:00 6,1 4,4 2,3 15,4 16,4 5 3 10 5 NNE 16 0 0,0
22.10.2018 07:00:00 7,0 5,0 3,3 15,4 16,4 5 3 8 4 N 17 0 0,0
22.10.2018 06:00:00 7,4 5,7 4,5 15,5 16,4 0 0 10 5 N 19 0 0,0
22.10.2018 05:00:00 8,2 6,0 4,6 15,6 16,4 3 1 7 4 WSW 20 0 0,0
22.10.2018 04:00:00 8,3 6,1 5,4 15,6 16,4 0 0 9 5 N 18 0 0,0
22.10.2018 03:00:00 9,2 6,5 6,3 15,6 16,4 0 0 16 9 N 20 0 0,0
22.10.2018 02:00:00 11,3 6,0 7,4 15,7 16,4 4 2 16 8 WSW 20 0 0,0
22.10.2018 01:00:00 11,2 6,3 9,7 15,7 16,4 9 5 36 19 SSW 20 0 0,0
22.10.2018 00:00:00 14,9 4,8 8,1 15,8 16,4 17 9 40 22 NNE 20 0 0,0
21.10.2018 23:00:00 11,4 3,4 6,8 15,7 16,4 5 3 10 5 E 20 0 0,0
21.10.2018 22:00:00 11,0 4,7 7,5 15,7 16,4 3 1 9 5 N 20 0 0,0
21.10.2018 21:00:00 12,0 4,9 8,7 15,7 16,4 0 0 9 5 N 20 0 0,0
21.10.2018 20:00:00 13,3 5,2 9,6 15,6 16,4 5 3 7 4 NNW 20 0 0,0
21.10.2018 19:00:00 16,2 3,9 12,8 15,6 16,4 2 1 11 6 E 20 17 0,0
21.10.2018 18:00:00 20,3 5,5 18,9 15,5 16,4 6 4 19 11 SW 20 60 0,0
21.10.2018 17:00:00 21,5 5,4 24,6 15,4 16,4 10 6 22 12 SSW 20 60 0,0
21.10.2018 16:00:00 21,9 4,0 27,8 15,3 16,4 9 5 18 10 SSW 20 60 0,0
21.10.2018 15:00:00 21,4 3,1 28,5 15,3 16,4 9 5 15 8 SW 20 60 0,0
21.10.2018 14:00:00 20,2 3,8 29,1 15,3 16,4 9 5 14 8 SW 20 60 0,0
21.10.2018 13:00:00 19,9 2,3 25,3 15,4 16,4 5 3 13 7 SSE 20 60 0,0
21.10.2018 12:00:00 17,4 1,4 25,4 15,5 16,4 8 5 18 10 S 20 60 0,0
21.10.2018 11:00:00 14,8 1,3 18,3 15,5 16,4 9 5 29 16 ENE 20 60 0,0
21.10.2018 10:00:00 12,4 1,7 8,6 15,6 16,4 16 9 32 17 NNE 20 48 0,0
21.10.2018 09:00:00 9,0 1,4 6,1 15,6 16,4 14 8 24 13 NE 20 0 0,0
21.10.2018 08:00:00 8,5 1,9 6,3 15,7 16,4 8 4 25 14 ENE 20 0 0,0
21.10.2018 07:00:00 9,1 2,0 7,3 15,8 16,4 14 8 26 14 NNE 20 0 0,0
21.10.2018 06:00:00 10,0 2,8 6,6 15,8 16,4 15 8 32 17 NNE 20 0 0,0
21.10.2018 05:00:00 10,3 3,1 8,1 15,9 16,4 13 7 35 19 NE 20 0 0,0
21.10.2018 04:00:00 11,5 3,0 9,5 15,9 16,4 18 10 31 17 NNE 20 0 0,0
21.10.2018 03:00:00 12,2 3,2 9,0 16,0 16,4 17 9 29 16 N 20 0 0,0
21.10.2018 02:00:00 12,6 3,8 9,8 16,0 16,4 19 11 29 16 N 20 0 0,0
21.10.2018 01:00:00 12,6 4,8 10,5 16,0 16,4 13 7 28 15 NE 20 0 0,0
21.10.2018 00:00:00 12,9 5,3 10,6 16,0 16,4 11 6 19 11 NE 20 0 0,0
20.10.2018 23:00:00 13,6 6,7 10,9 16,0 16,5 12 7 28 15 NNE 20 0 0,0
20.10.2018 22:00:00 13,6 8,6 10,5 16,0 16,4 6 3 10 6 N 20 0 0,0
20.10.2018 21:00:00 14,5 8,9 11,4 15,9 16,4 3 1 9 5 NW 20 0 0,0
20.10.2018 20:00:00 15,7 9,1 12,5 15,9 16,4 4 2 8 4 N 20 0 0,0
20.10.2018 19:00:00 18,3 9,4 15,5 15,7 16,4 4 2 19 10 W 20 19 0,0
20.10.2018 18:00:00 21,0 9,6 20,2 15,7 16,4 9 5 24 13 SSW 20 60 0,0
20.10.2018 17:00:00 22,1 9,3 25,2 15,6 16,4 14 8 25 14 SSW 20 60 0,0
20.10.2018 16:00:00 22,2 9,4 26,9 15,5 16,4 16 8 26 14 SSW 20 60 0,0
20.10.2018 15:00:00 22,3 9,1 28,4 15,5 16,4 13 7 24 13 SSW 20 60 0,0
20.10.2018 14:00:00 21,6 9,5 29,4 15,5 16,4 8 5 18 10 SSW 20 60 0,0
20.10.2018 13:00:00 20,1 7,5 27,1 15,5 16,5 7 4 13 7 SSW 20 60 0,0
20.10.2018 12:00:00 17,7 6,8 24,8 15,6 16,4 6 4 16 9 S 20 60 0,0
20.10.2018 11:00:00 15,6 7,1 20,1 15,6 16,5 6 4 21 12 ENE 20 60 0,0
20.10.2018 10:00:00 13,0 6,8 8,1 15,7 16,5 6 3 16 8 E 20 60 0,0
20.10.2018 09:00:00 9,2 5,6 6,8 15,7 16,4 5 3 13 7 NE 20 0 0,0
20.10.2018 08:00:00 9,1 5,6 6,0 15,8 16,4 7 4 11 6 NE 20 0 0,0
20.10.2018 07:00:00 10,4 5,8 8,2 15,9 16,4 5 3 20 11 NNE 20 0 0,0
20.10.2018 06:00:00 11,1 5,8 9,0 15,9 16,5 9 5 18 10 NE 20 0 0,0
20.10.2018 05:00:00 12,3 5,9 10,0 15,9 16,5 13 7 26 14 NNE 20 0 0,0
20.10.2018 04:00:00 12,8 6,2 11,4 16,0 16,4 15 8 26 14 NNE 20 0 0,0
20.10.2018 03:00:00 13,0 6,3 10,5 16,0 16,4 13 7 29 16 NNE 20 0 0,0
20.10.2018 02:00:00 13,1 6,7 11,3 16,0 16,4 14 7 25 13 NNE 20 0 0,0
20.10.2018 01:00:00 13,5 6,8 10,0 16,1 16,5 13 7 23 12 NNE 20 0 0,0
20.10.2018 00:00:00 12,6 7,1 10,0 16,1 16,5 6 3 13 7 NNE 20 0 0,0
19.10.2018 23:00:00 13,7 7,5 10,7 16,1 16,5 8 5 13 7 NNE 20 0 0,0
19.10.2018 22:00:00 14,1 8,3 10,9 16,0 16,4 6 3 9 5 NNE 20 0 0,0
19.10.2018 21:00:00 15,2 8,2 11,7 16,0 16,5 0 0 8 4 N 20 0 0,0
19.10.2018 20:00:00 16,6 8,8 12,2 15,9 16,5 0 0 9 5 N 20 0 0,0
19.10.2018 19:00:00 18,8 8,7 16,1 15,8 16,5 5 3 19 10 W 20 20 0,0
19.10.2018 18:00:00 21,2 8,5 21,0 15,7 16,5 9 5 25 14 SSW 20 60 0,0
19.10.2018 17:00:00 22,7 8,0 24,9 15,6 16,4 9 5 31 17 SSW 20 60 0,0
19.10.2018 16:00:00 23,8 8,2 24,9 15,5 16,5 14 7 30 16 SSW 20 50 0,0
19.10.2018 15:00:00 22,8 7,3 27,5 15,5 16,5 12 6 26 14 SSW 20 58 0,0
19.10.2018 14:00:00 22,4 6,6 29,2 15,5 16,5 10 5 18 10 SSW 20 60 0,0
19.10.2018 13:00:00 21,8 6,8 29,3 15,5 16,5 8 4 22 12 S 20 60 0,0
19.10.2018 12:00:00 19,4 6,1 22,9 15,6 16,5 15 8 30 16 NNE 20 60 0,0
19.10.2018 11:00:00 16,4 5,9 18,7 15,6 16,5 16 8 36 20 N 20 60 0,0
19.10.2018 10:00:00 14,9 5,4 13,1 15,7 16,5 18 10 35 19 NNE 20 60 0,0
19.10.2018 09:00:00 12,5 5,4 10,6 15,7 16,5 18 10 35 19 NNE 20 1 0,0
19.10.2018 08:00:00 11,9 5,1 10,1 15,8 16,5 16 9 34 19 NNE 20 0 0,0
19.10.2018 07:00:00 11,7 5,3 10,6 15,9 16,5 19 10 38 20 NNE 20 0 0,0
19.10.2018 06:00:00 12,4 5,5 11,0 15,9 16,5 21 12 37 20 N 20 0 0,0
19.10.2018 05:00:00 12,6 5,5 11,4 15,9 16,5 19 10 35 19 N 20 0 0,0
19.10.2018 04:00:00 13,1 5,7 11,7 16,0 16,5 16 8 29 16 N 20 0 0,0
19.10.2018 03:00:00 14,0 5,9 12,5 16,0 16,5 23 13 36 19 NNE 20 0 0,0
19.10.2018 02:00:00 14,1 6,0 12,7 16,0 16,5 18 10 31 17 NNE 20 0 0,0
19.10.2018 01:00:00 15,0 6,3 12,7 16,0 16,5 16 9 30 16 NE 20 0 0,0
19.10.2018 00:00:00 15,2 7,0 12,6 16,0 16,5 16 9 25 14 NNE 20 0 0,0
18.10.2018 23:00:00 14,8 7,6 11,4 16,0 16,5 9 5 22 12 NNE 20 0 0,0
18.10.2018 22:00:00 15,2 9,1 11,5 16,0 16,5 4 2 7 4 N 20 0 0,0
18.10.2018 21:00:00 16,9 9,6 14,9 15,9 16,5 3 2 8 4 NE 20 0 0,0
18.10.2018 20:00:00 17,6 9,7 15,1 15,8 16,5 5 3 8 4 N 20 0 0,0
18.10.2018 19:00:00 18,8 9,6 17,6 15,7 16,5 4 2 12 6 WSW 20 0 0,0
18.10.2018 18:00:00 19,6 9,8 19,5 15,7 16,5 6 4 24 13 S 20 0 0,0
18.10.2018 17:00:00 20,9 9,5 21,3 15,6 16,5 11 6 22 12 SSW 20 0 0,0
18.10.2018 16:00:00 21,5 8,7 22,5 15,5 16,5 10 5 16 9 SSW 20 0 0,0
18.10.2018 15:00:00 22,4 7,0 24,6 15,5 16,5 7 4 24 13 WSW 20 2 0,0
18.10.2018 14:00:00 22,9 6,2 27,0 15,5 16,5 18 10 30 16 NNE 20 45 0,0
18.10.2018 13:00:00 22,9 6,6 27,9 15,4 16,5 20 11 38 20 NNE 20 60 0,0
18.10.2018 12:00:00 22,2 6,4 27,5 15,5 16,6 22 12 36 20 NNE 20 60 0,0
18.10.2018 11:00:00 20,5 6,8 23,0 15,5 16,6 21 12 39 21 N 20 60 0,0
18.10.2018 10:00:00 17,1 7,4 14,1 15,5 16,6 7 4 22 12 ENE 20 15 0,0
18.10.2018 09:00:00 15,0 7,0 13,9 15,5 16,5 12 7 24 13 NE 20 0 0,0
18.10.2018 08:00:00 16,2 6,9 14,6 15,6 16,6 19 10 42 23 N 20 0 0,0
18.10.2018 07:00:00 16,4 6,8 15,1 15,6 16,6 23 12 37 20 N 20 0 0,0
18.10.2018 06:00:00 16,3 6,7 15,2 15,6 16,6 23 12 42 23 N 20 0 0,0
18.10.2018 05:00:00 17,0 6,8 16,2 15,6 16,6 23 12 40 22 N 20 0 0,0
18.10.2018 04:00:00 17,2 6,7 16,1 15,6 16,6 24 13 45 24 N 20 0 0,0
18.10.2018 03:00:00 16,9 6,7 16,3 15,6 16,6 27 14 45 24 N 20 0 0,0
18.10.2018 02:00:00 17,1 6,6 16,3 15,6 16,6 24 13 39 21 N 20 0 0,0
18.10.2018 01:00:00 17,1 6,6 15,7 15,6 16,6 29 16 45 25 N 20 0 0,0
18.10.2018 00:00:00 16,9 6,7 16,0 15,6 16,6 15 8 32 17 N 20 0 0,0
17.10.2018 23:00:00 17,4 6,6 14,8 15,6 16,6 18 10 40 21 N 20 0 0,0
17.10.2018 22:00:00 15,7 7,7 14,1 15,5 16,6 4 2 24 13 NE 20 0 0,0
17.10.2018 21:00:00 15,4 8,8 13,6 15,5 16,6 2 1 7 4 S 20 0 0,0
17.10.2018 20:00:00 16,0 8,7 14,2 15,5 16,6 5 3 8 4 ENE 20 0 0,0
17.10.2018 19:00:00 17,0 8,4 14,7 15,4 16,6 2 1 11 6 E 20 0 0,0
17.10.2018 18:00:00 18,1 8,4 18,0 15,3 16,6 10 6 26 14 SSW 20 0 0,0
17.10.2018 17:00:00 18,9 9,1 19,6 15,3 16,6 9 5 19 11 S 20 0 0,0
17.10.2018 16:00:00 19,7 8,7 20,8 15,2 16,6 11 6 33 18 SSW 20 0 0,0
17.10.2018 15:00:00 21,0 7,9 23,3 15,1 16,6 15 8 31 17 S 20 2 0,0
17.10.2018 14:00:00 21,6 6,7 24,1 15,1 16,6 18 10 34 18 N 20 3 0,0
17.10.2018 13:00:00 21,0 6,5 23,0 15,1 16,6 24 13 40 22 N 20 37 0,0
17.10.2018 12:00:00 20,5 6,4 25,0 15,1 16,6 23 12 38 20 N 20 60 0,0
17.10.2018 11:00:00 18,6 5,8 21,8 15,2 16,6 24 13 44 24 NNE 20 60 0,0
17.10.2018 10:00:00 15,9 6,0 13,0 15,2 16,6 19 11 37 20 ENE 20 19 0,0
17.10.2018 09:00:00 13,5 5,4 12,4 15,2 16,6 8 4 32 17 NE 20 0 0,0
17.10.2018 08:00:00 14,1 5,2 13,2 15,3 16,6 12 6 33 18 ENE 20 0 0,0
17.10.2018 07:00:00 14,4 5,5 13,2 15,3 16,7 19 11 35 19 NE 20 0 0,0
17.10.2018 06:00:00 14,1 5,4 11,2 15,3 16,7 15 8 26 14 NE 20 0 0,0
17.10.2018 05:00:00 13,6 5,5 11,4 15,3 16,7 16 9 29 16 NE 20 0 0,0
17.10.2018 04:00:00 14,3 5,6 12,5 15,3 16,7 10 6 34 18 NE 20 0 0,0
17.10.2018 03:00:00 15,2 5,7 13,9 15,4 16,7 20 11 37 20 NNE 20 0 0,0
17.10.2018 02:00:00 15,9 5,5 14,7 15,4 16,7 23 12 42 23 N 20 0 0,0
17.10.2018 01:00:00 15,5 6,0 14,8 15,4 16,7 24 13 41 22 N 20 0 0,0

tt = Température de l'air
td = dewpoint
tt 5cm = Température de l'air 5cm
tt -20cm = Température de l'air -20cm
tt -100cm = Température de l'air -100cm
ff = Vitesse du vent
fx = gusts
dd = Direction du vent
vv = visibility
sd = Ensoleillement
rr = Quantités de précipitations

stations d'obs. à proximité